sensor_id;sensor_type;location;lat;lon;timestamp;pressure;altitude;pressure_sealevel;temperature;humidity
65800;BME280;52544;48.116;11.660;2022-11-18T00:00:49;94024.63;;;7.64;100.00
65800;BME280;52544;48.116;11.660;2022-11-18T00:03:15;94015.78;;;7.65;100.00
65800;BME280;52544;48.116;11.660;2022-11-18T00:05:41;94013.16;;;7.65;100.00
65800;BME280;52544;48.116;11.660;2022-11-18T00:08:06;94019.38;;;7.64;100.00
65800;BME280;52544;48.116;11.660;2022-11-18T00:10:32;94010.81;;;7.62;100.00
65800;BME280;52544;48.116;11.660;2022-11-18T00:12:57;94003.91;;;7.61;100.00
65800;BME280;52544;48.116;11.660;2022-11-18T00:15:41;94004.34;;;7.57;100.00
65800;BME280;52544;48.116;11.660;2022-11-18T00:18:07;93991.50;;;7.54;100.00
65800;BME280;52544;48.116;11.660;2022-11-18T00:20:33;93994.28;;;7.52;100.00
65800;BME280;52544;48.116;11.660;2022-11-18T00:22:59;93989.31;;;7.49;100.00
65800;BME280;52544;48.116;11.660;2022-11-18T00:25:24;93990.13;;;7.49;100.00
65800;BME280;52544;48.116;11.660;2022-11-18T00:27:50;93984.06;;;7.49;100.00
65800;BME280;52544;48.116;11.660;2022-11-18T00:30:16;93989.31;;;7.49;100.00
65800;BME280;52544;48.116;11.660;2022-11-18T00:32:41;93989.44;;;7.47;100.00
65800;BME280;52544;48.116;11.660;2022-11-18T00:35:07;93991.25;;;7.47;100.00
65800;BME280;52544;48.116;11.660;2022-11-18T00:37:33;93986.16;;;7.45;100.00
65800;BME280;52544;48.116;11.660;2022-11-18T00:39:58;93980.22;;;7.43;100.00
65800;BME280;52544;48.116;11.660;2022-11-18T00:42:23;93977.97;;;7.48;100.00
65800;BME280;52544;48.116;11.660;2022-11-18T00:45:08;93983.81;;;7.42;100.00
65800;BME280;52544;48.116;11.660;2022-11-18T00:47:33;93979.69;;;7.40;100.00
65800;BME280;52544;48.116;11.660;2022-11-18T00:49:59;93973.91;;;7.36;100.00
65800;BME280;52544;48.116;11.660;2022-11-18T00:52:24;93974.03;;;7.35;100.00
65800;BME280;52544;48.116;11.660;2022-11-18T00:54:49;93973.66;;;7.30;100.00
65800;BME280;52544;48.116;11.660;2022-11-18T00:57:15;93972.31;;;7.25;100.00
65800;BME280;52544;48.116;11.660;2022-11-18T00:59:40;93965.41;;;7.24;100.00
65800;BME280;52544;48.116;11.660;2022-11-18T01:02:05;93961.25;;;7.22;100.00
65800;BME280;52544;48.116;11.660;2022-11-18T01:04:31;93959.75;;;7.19;100.00
65800;BME280;52544;48.116;11.660;2022-11-18T01:06:56;93951.59;;;7.22;100.00
65800;BME280;52544;48.116;11.660;2022-11-18T01:09:22;93955.16;;;7.21;100.00
65800;BME280;52544;48.116;11.660;2022-11-18T01:11:47;93960.59;;;7.20;100.00
65800;BME280;52544;48.116;11.660;2022-11-18T01:14:31;93954.66;;;7.18;100.00
65800;BME280;52544;48.116;11.660;2022-11-18T01:16:57;93960.44;;;7.21;100.00
65800;BME280;52544;48.116;11.660;2022-11-18T01:19:23;93943.81;;;7.21;100.00
65800;BME280;52544;48.116;11.660;2022-11-18T01:21:49;93959.31;;;7.24;100.00
65800;BME280;52544;48.116;11.660;2022-11-18T01:24:14;93953.34;;;7.22;100.00
65800;BME280;52544;48.116;11.660;2022-11-18T01:26:40;93942.19;;;7.20;100.00
65800;BME280;52544;48.116;11.660;2022-11-18T01:29:06;93945.78;;;7.19;100.00
65800;BME280;52544;48.116;11.660;2022-11-18T01:31:31;93945.78;;;7.19;100.00
65800;BME280;52544;48.116;11.660;2022-11-18T01:33:57;93942.34;;;7.18;100.00
65800;BME280;52544;48.116;11.660;2022-11-18T01:36:24;93929.47;;;7.15;100.00
65800;BME280;52544;48.116;11.660;2022-11-18T01:38:50;93920.38;;;7.10;100.00
65800;BME280;52544;48.116;11.660;2022-11-18T01:41:18;93930.75;;;7.11;100.00
65800;BME280;52544;48.116;11.660;2022-11-18T01:44:05;93918.06;;;7.07;100.00
65800;BME280;52544;48.116;11.660;2022-11-18T01:46:49;93916.41;;;7.06;100.00
65800;BME280;52544;48.116;11.660;2022-11-18T01:49:15;93917.59;;;7.11;100.00
65800;BME280;52544;48.116;11.660;2022-11-18T01:51:45;93925.13;;;7.06;100.00
65800;BME280;52544;48.116;11.660;2022-11-18T01:54:18;93934.28;;;7.02;100.00
65800;BME280;52544;48.116;11.660;2022-11-18T01:56:49;93934.94;;;7.04;100.00
65800;BME280;52544;48.116;11.660;2022-11-18T01:59:18;93943.66;;;7.05;100.00
65800;BME280;52544;48.116;11.660;2022-11-18T02:01:45;93946.91;;;6.98;100.00
65800;BME280;52544;48.116;11.660;2022-11-18T02:04:11;93952.41;;;7.05;100.00
65800;BME280;52544;48.116;11.660;2022-11-18T02:06:38;93952.53;;;7.04;100.00
65800;BME280;52544;48.116;11.660;2022-11-18T02:09:04;93956.69;;;7.06;100.00
65800;BME280;52544;48.116;11.660;2022-11-18T02:11:30;93953.06;;;7.07;100.00
65800;BME280;52544;48.116;11.660;2022-11-18T02:14:14;93958.94;;;7.01;100.00
65800;BME280;52544;48.116;11.660;2022-11-18T02:30:11;93964.78;;;6.95;100.00
65800;BME280;52544;48.116;11.660;2022-11-18T02:32:43;93958.41;;;6.97;100.00
65800;BME280;52544;48.116;11.660;2022-11-18T02:35:32;93948.16;;;6.94;100.00
65800;BME280;52544;48.116;11.660;2022-11-18T02:38:06;93952.59;;;6.94;100.00
65800;BME280;52544;48.116;11.660;2022-11-18T02:40:40;93951.78;;;6.93;100.00
65800;BME280;52544;48.116;11.660;2022-11-18T02:43:12;93941.63;;;6.98;100.00
65800;BME280;52544;48.116;11.660;2022-11-18T02:45:44;93943.75;;;6.95;100.00
65800;BME280;52544;48.116;11.660;2022-11-18T02:48:12;93949.53;;;6.98;100.00
65800;BME280;52544;48.116;11.660;2022-11-18T02:50:42;93944.44;;;6.97;100.00
65800;BME280;52544;48.116;11.660;2022-11-18T02:53:10;93944.50;;;7.05;100.00
65800;BME280;52544;48.116;11.660;2022-11-18T02:55:39;93947.81;;;7.07;100.00
65800;BME280;52544;48.116;11.660;2022-11-18T02:58:06;93947.72;;;6.99;100.00
65800;BME280;52544;48.116;11.660;2022-11-18T03:00:32;93944.81;;;7.02;100.00
65800;BME280;52544;48.116;11.660;2022-11-18T03:02:58;93943.16;;;7.01;100.00
65800;BME280;52544;48.116;11.660;2022-11-18T03:05:50;93950.09;;;6.92;100.00
65800;BME280;52544;48.116;11.660;2022-11-18T03:08:21;93953.13;;;6.97;100.00
65800;BME280;52544;48.116;11.660;2022-11-18T03:11:09;93949.53;;;6.98;100.00
65800;BME280;52544;48.116;11.660;2022-11-18T03:14:01;93944.81;;;7.02;100.00
65800;BME280;52544;48.116;11.660;2022-11-18T03:16:43;93943.00;;;7.03;100.00
65800;BME280;52544;48.116;11.660;2022-11-18T03:24:49;93935.56;;;6.98;100.00
65800;BME280;52544;48.116;11.660;2022-11-18T03:27:35;93939.84;;;6.99;100.00
65800;BME280;52544;48.116;11.660;2022-11-18T03:30:09;93941.88;;;7.05;100.00
65800;BME280;52544;48.116;11.660;2022-11-18T03:32:40;93945.00;;;7.09;100.00
65800;BME280;52544;48.116;11.660;2022-11-18T03:35:09;93942.53;;;7.07;100.00
65800;BME280;52544;48.116;11.660;2022-11-18T03:37:37;93955.53;;;7.09;100.00
65800;BME280;52544;48.116;11.660;2022-11-18T03:40:13;93951.09;;;7.09;100.00
65800;BME280;52544;48.116;11.660;2022-11-18T03:42:42;93965.56;;;7.05;100.00
65800;BME280;52544;48.116;11.660;2022-11-18T03:45:28;93970.03;;;6.95;100.00
65800;BME280;52544;48.116;11.660;2022-11-18T03:48:03;93971.16;;;6.92;100.00
65800;BME280;52544;48.116;11.660;2022-11-18T03:50:35;93975.56;;;6.92;100.00
65800;BME280;52544;48.116;11.660;2022-11-18T03:53:02;93975.28;;;6.95;100.00
65800;BME280;52544;48.116;11.660;2022-11-18T03:55:33;93973.94;;;6.91;100.00
65800;BME280;52544;48.116;11.660;2022-11-18T04:00:37;93985.81;;;6.95;100.00
65800;BME280;52544;48.116;11.660;2022-11-18T04:03:03;93992.44;;;6.99;100.00
65800;BME280;52544;48.116;11.660;2022-11-18T04:05:34;93991.44;;;7.00;100.00
65800;BME280;52544;48.116;11.660;2022-11-18T04:08:03;94006.66;;;7.06;100.00
65800;BME280;52544;48.116;11.660;2022-11-18T04:10:38;94006.22;;;7.11;100.00
65800;BME280;52544;48.116;11.660;2022-11-18T04:13:26;94018.00;;;7.07;100.00
65800;BME280;52544;48.116;11.660;2022-11-18T04:15:54;94030.47;;;7.05;100.00
65800;BME280;52544;48.116;11.660;2022-11-18T04:18:19;94013.28;;;7.10;100.00
65800;BME280;52544;48.116;11.660;2022-11-18T04:20:45;94010.66;;;7.10;100.00
65800;BME280;52544;48.116;11.660;2022-11-18T04:23:10;94020.44;;;7.18;100.00
65800;BME280;52544;48.116;11.660;2022-11-18T04:25:36;94010.31;;;7.13;100.00
65800;BME280;52544;48.116;11.660;2022-11-18T04:28:02;94002.50;;;7.04;100.00
65800;BME280;52544;48.116;11.660;2022-11-18T04:30:28;94004.06;;;6.96;100.00
65800;BME280;52544;48.116;11.660;2022-11-18T04:32:54;94007.97;;;6.92;100.00
65800;BME280;52544;48.116;11.660;2022-11-18T04:35:19;94019.63;;;6.90;100.00
65800;BME280;52544;48.116;11.660;2022-11-18T04:37:45;94017.38;;;6.95;100.00
65800;BME280;52544;48.116;11.660;2022-11-18T04:40:11;94012.81;;;6.97;100.00
65800;BME280;52544;48.116;11.660;2022-11-18T04:42:36;94011.13;;;6.96;100.00
65800;BME280;52544;48.116;11.660;2022-11-18T04:45:01;94002.78;;;7.00;100.00
65800;BME280;52544;48.116;11.660;2022-11-18T04:47:27;94007.69;;;6.95;100.00
65800;BME280;52544;48.116;11.660;2022-11-18T04:49:52;94014.75;;;6.95;100.00
65800;BME280;52544;48.116;11.660;2022-11-18T04:52:18;94008.50;;;6.96;100.00
65800;BME280;52544;48.116;11.660;2022-11-18T04:54:43;94006.84;;;6.95;100.00
65800;BME280;52544;48.116;11.660;2022-11-18T04:57:09;94000.47;;;6.97;100.00
65800;BME280;52544;48.116;11.660;2022-11-18T04:59:34;94004.75;;;6.98;100.00
65800;BME280;52544;48.116;11.660;2022-11-18T05:02:00;93998.22;;;7.03;100.00
65800;BME280;52544;48.116;11.660;2022-11-18T05:04:28;93994.06;;;7.00;100.00
65800;BME280;52544;48.116;11.660;2022-11-18T05:06:57;93993.78;;;7.03;100.00
65800;BME280;52544;48.116;11.660;2022-11-18T05:09:23;93991.91;;;6.95;100.00
65800;BME280;52544;48.116;11.660;2022-11-18T05:11:48;93995.88;;;6.99;100.00
65800;BME280;52544;48.116;11.660;2022-11-18T05:14:32;93994.06;;;7.00;100.00
65800;BME280;52544;48.116;11.660;2022-11-18T05:16:59;93990.63;;;6.99;100.00
65800;BME280;52544;48.116;11.660;2022-11-18T05:19:25;93989.50;;;7.02;100.00
65800;BME280;52544;48.116;11.660;2022-11-18T05:21:51;93992.44;;;6.99;100.00
65800;BME280;52544;48.116;11.660;2022-11-18T05:24:16;93990.88;;;7.06;100.00
65800;BME280;52544;48.116;11.660;2022-11-18T05:26:42;93993.50;;;7.06;100.00
65800;BME280;52544;48.116;11.660;2022-11-18T05:29:08;93992.00;;;7.04;100.00
65800;BME280;52544;48.116;11.660;2022-11-18T05:31:33;93992.97;;;7.03;100.00
65800;BME280;52544;48.116;11.660;2022-11-18T05:33:59;93983.56;;;7.00;100.00
65800;BME280;52544;48.116;11.660;2022-11-18T05:36:25;93985.53;;;6.98;100.00
65800;BME280;52544;48.116;11.660;2022-11-18T05:38:50;93985.75;;;7.05;100.00
65800;BME280;52544;48.116;11.660;2022-11-18T05:41:16;93991.25;;;7.11;100.00
65800;BME280;52544;48.116;11.660;2022-11-18T05:44:01;93994.91;;;7.00;100.00
65800;BME280;52544;48.116;11.660;2022-11-18T05:46:27;94004.59;;;7.00;100.00
65800;BME280;52544;48.116;11.660;2022-11-18T05:48:53;93996.72;;;7.00;100.00
65800;BME280;52544;48.116;11.660;2022-11-18T05:51:19;94004.38;;;6.93;100.00
65800;BME280;52544;48.116;11.660;2022-11-18T05:53:45;94002.13;;;6.98;100.00
65800;BME280;52544;48.116;11.660;2022-11-18T05:58:43;94005.19;;;6.94;100.00
65800;BME280;52544;48.116;11.660;2022-11-18T06:01:09;94010.19;;;6.97;100.00
65800;BME280;52544;48.116;11.660;2022-11-18T06:03:37;94013.75;;;6.96;100.00
65800;BME280;52544;48.116;11.660;2022-11-18T06:06:05;94012.31;;;6.84;100.00
65800;BME280;52544;48.116;11.660;2022-11-18T06:08:35;94013.97;;;6.85;100.00
65800;BME280;52544;48.116;11.660;2022-11-18T06:11:01;94007.44;;;6.89;100.00
65800;BME280;52544;48.116;11.660;2022-11-18T06:13:34;94013.75;;;6.96;100.00
65800;BME280;52544;48.116;11.660;2022-11-18T06:16:02;94011.28;;;6.94;100.00
65800;BME280;52544;48.116;11.660;2022-11-18T06:18:29;94017.00;;;6.90;100.00
65800;BME280;52544;48.116;11.660;2022-11-18T06:21:00;94018.69;;;6.81;100.00
65800;BME280;52544;48.116;11.660;2022-11-18T06:23:30;94027.56;;;6.80;100.00
65800;BME280;52544;48.116;11.660;2022-11-18T06:25:58;94026.00;;;6.87;100.00
65800;BME280;52544;48.116;11.660;2022-11-18T06:28:24;94024.88;;;6.90;100.00
65800;BME280;52544;48.116;11.660;2022-11-18T06:30:50;94034.56;;;6.89;100.00
65800;BME280;52544;48.116;11.660;2022-11-18T06:33:16;94034.84;;;6.86;100.00
65800;BME280;52544;48.116;11.660;2022-11-18T06:35:42;94040.81;;;6.88;100.00
65800;BME280;52544;48.116;11.660;2022-11-18T06:38:07;94044.25;;;6.89;100.00
65800;BME280;52544;48.116;11.660;2022-11-18T06:40:33;94051.56;;;6.95;100.00
65800;BME280;52544;48.116;11.660;2022-11-18T06:43:05;94059.69;;;7.01;100.00
65800;BME280;52544;48.116;11.660;2022-11-18T06:45:49;94068.97;;;6.96;100.00
65800;BME280;52544;48.116;11.660;2022-11-18T06:48:33;94069.41;;;7.01;100.00
65800;BME280;52544;48.116;11.660;2022-11-18T06:50:58;94071.03;;;7.02;100.00
65800;BME280;52544;48.116;11.660;2022-11-18T06:53:23;94074.41;;;6.94;100.00
65800;BME280;52544;48.116;11.660;2022-11-18T06:55:49;94072.97;;;7.00;100.00
65800;BME280;52544;48.116;11.660;2022-11-18T06:58:14;94074.06;;;7.07;100.00
65800;BME280;52544;48.116;11.660;2022-11-18T07:00:40;94087.41;;;6.96;100.00
65800;BME280;52544;48.116;11.660;2022-11-18T07:03:05;94081.56;;;7.02;100.00
65800;BME280;52544;48.116;11.660;2022-11-18T07:05:30;94092.53;;;6.97;100.00
65800;BME280;52544;48.116;11.660;2022-11-18T07:07:56;94089.75;;;6.99;100.00
65800;BME280;52544;48.116;11.660;2022-11-18T07:10:21;94092.31;;;7.09;100.00
65800;BME280;52544;48.116;11.660;2022-11-18T07:12:46;94088.56;;;7.11;100.00
65800;BME280;52544;48.116;11.660;2022-11-18T07:15:12;94096.75;;;7.08;100.00
65800;BME280;52544;48.116;11.660;2022-11-18T07:17:37;94098.28;;;7.11;100.00
65800;BME280;52544;48.116;11.660;2022-11-18T07:20:03;94101.84;;;7.19;100.00
65800;BME280;52544;48.116;11.660;2022-11-18T07:22:28;94102.22;;;7.24;100.00
65800;BME280;52544;48.116;11.660;2022-11-18T07:24:54;94101.38;;;7.24;100.00
65800;BME280;52544;48.116;11.660;2022-11-18T07:27:19;94114.94;;;7.29;100.00
65800;BME280;52544;48.116;11.660;2022-11-18T07:29:44;94112.75;;;7.24;100.00
65800;BME280;52544;48.116;11.660;2022-11-18T07:32:10;94112.59;;;7.26;100.00
65800;BME280;52544;48.116;11.660;2022-11-18T07:34:35;94120.88;;;7.31;100.00
65800;BME280;52544;48.116;11.660;2022-11-18T07:37:01;94122.53;;;7.32;100.00
65800;BME280;52544;48.116;11.660;2022-11-18T07:39:26;94120.06;;;7.31;100.00
65800;BME280;52544;48.116;11.660;2022-11-18T07:41:51;94116.72;;;7.29;100.00
65800;BME280;52544;48.116;11.660;2022-11-18T07:44:17;94123.75;;;7.38;100.00
65800;BME280;52544;48.116;11.660;2022-11-18T07:46:42;94122.81;;;7.29;100.00
65800;BME280;52544;48.116;11.660;2022-11-18T07:49:09;94127.09;;;7.30;100.00
65800;BME280;52544;48.116;11.660;2022-11-18T07:51:38;94128.88;;;7.39;100.00
65800;BME280;52544;48.116;11.660;2022-11-18T07:56:33;94134.81;;;7.41;100.00
65800;BME280;52544;48.116;11.660;2022-11-18T07:58:58;94134.16;;;7.39;100.00
65800;BME280;52544;48.116;11.660;2022-11-18T08:01:24;94133.59;;;7.36;100.00
65800;BME280;52544;48.116;11.660;2022-11-18T08:03:55;94136.06;;;7.37;100.00
65800;BME280;52544;48.116;11.660;2022-11-18T08:06:21;94142.25;;;7.46;100.00
65800;BME280;52544;48.116;11.660;2022-11-18T08:08:46;94142.09;;;7.47;100.00
65800;BME280;52544;48.116;11.660;2022-11-18T08:11:17;94151.13;;;7.45;100.00
65800;BME280;52544;48.116;11.660;2022-11-18T08:13:43;94148.66;;;7.43;100.00
65800;BME280;52544;48.116;11.660;2022-11-18T08:16:16;94147.38;;;7.47;100.00
65800;BME280;52544;48.116;11.660;2022-11-18T08:18:42;94149.28;;;7.55;100.00
65800;BME280;52544;48.116;11.660;2022-11-18T08:21:08;94158.00;;;7.56;100.00
65800;BME280;52544;48.116;11.660;2022-11-18T08:23:34;94150.69;;;7.49;100.00
65800;BME280;52544;48.116;11.660;2022-11-18T08:26:18;94148.59;;;7.53;100.00
65800;BME280;52544;48.116;11.660;2022-11-18T08:28:44;94148.97;;;7.58;100.00
65800;BME280;52544;48.116;11.660;2022-11-18T08:31:18;94148.31;;;7.56;100.00
65800;BME280;52544;48.116;11.660;2022-11-18T08:33:44;94159.34;;;7.60;100.00
65800;BME280;52544;48.116;11.660;2022-11-18T08:36:18;94160.06;;;7.62;100.00
65800;BME280;52544;48.116;11.660;2022-11-18T08:38:44;94167.41;;;7.58;100.00
65800;BME280;52544;48.116;11.660;2022-11-18T08:41:31;94159.25;;;7.51;100.00
65800;BME280;52544;48.116;11.660;2022-11-18T08:43:57;94165.22;;;7.54;100.00
65800;BME280;52544;48.116;11.660;2022-11-18T08:46:23;94174.22;;;7.51;100.00
65800;BME280;52544;48.116;11.660;2022-11-18T08:48:48;94181.91;;;7.44;100.00
65800;BME280;52544;48.116;11.660;2022-11-18T08:51:14;94181.75;;;7.46;100.00
65800;BME280;52544;48.116;11.660;2022-11-18T08:53:40;94176.19;;;7.49;100.00
65800;BME280;52544;48.116;11.660;2022-11-18T08:56:06;94189.09;;;7.42;100.00
65800;BME280;52544;48.116;11.660;2022-11-18T08:58:32;94192.88;;;7.40;100.00
65800;BME280;52544;48.116;11.660;2022-11-18T09:00:57;94186.03;;;7.47;100.00
65800;BME280;52544;48.116;11.660;2022-11-18T09:03:22;94180.09;;;7.45;100.00
65800;BME280;52544;48.116;11.660;2022-11-18T09:05:48;94188.91;;;7.54;100.00
65800;BME280;52544;48.116;11.660;2022-11-18T09:08:15;94190.56;;;7.55;100.00
65800;BME280;52544;48.116;11.660;2022-11-18T09:10:41;94192.66;;;7.51;100.00
65800;BME280;52544;48.116;11.660;2022-11-18T09:13:06;94206.25;;;7.46;100.00
65800;BME280;52544;48.116;11.660;2022-11-18T09:15:31;94209.03;;;7.45;100.00
65800;BME280;52544;48.116;11.660;2022-11-18T09:17:57;94204.59;;;7.45;100.00
65800;BME280;52544;48.116;11.660;2022-11-18T09:20:23;94209.59;;;7.48;100.00
65800;BME280;52544;48.116;11.660;2022-11-18T09:22:48;94216.34;;;7.51;100.00
65800;BME280;52544;48.116;11.660;2022-11-18T09:25:14;94214.03;;;7.48;100.00
65800;BME280;52544;48.116;11.660;2022-11-18T09:27:39;94221.81;;;7.40;100.00
65800;BME280;52544;48.116;11.660;2022-11-18T09:30:06;94222.66;;;7.40;100.00
65800;BME280;52544;48.116;11.660;2022-11-18T09:32:32;94226.34;;;7.47;100.00
65800;BME280;52544;48.116;11.660;2022-11-18T09:34:57;94232.34;;;7.40;100.00
65800;BME280;52544;48.116;11.660;2022-11-18T09:37:23;94227.22;;;7.38;100.00
65800;BME280;52544;48.116;11.660;2022-11-18T09:39:48;94229.84;;;7.38;100.00
65800;BME280;52544;48.116;11.660;2022-11-18T09:47:26;94239.53;;;7.38;100.00
65800;BME280;52544;48.116;11.660;2022-11-18T09:49:54;94236.78;;;7.39;100.00
65800;BME280;52544;48.116;11.660;2022-11-18T09:52:35;94236.47;;;7.42;100.00
65800;BME280;52544;48.116;11.660;2022-11-18T09:55:09;94252.97;;;7.44;100.00
65800;BME280;52544;48.116;11.660;2022-11-18T09:57:45;94248.41;;;7.37;100.00
65800;BME280;52544;48.116;11.660;2022-11-18T10:00:23;94258.25;;;7.35;100.00
65800;BME280;52544;48.116;11.660;2022-11-18T10:03:02;94262.56;;;7.26;100.00
65800;BME280;52544;48.116;11.660;2022-11-18T10:05:48;94258.16;;;7.17;100.00
65800;BME280;52544;48.116;11.660;2022-11-18T10:08:23;94256.50;;;7.16;100.00
65800;BME280;52544;48.116;11.660;2022-11-18T10:11:07;94263.19;;;7.10;100.00
65800;BME280;52544;48.116;11.660;2022-11-18T10:14:04;94262.91;;;7.04;100.00
65800;BME280;52544;48.116;11.660;2022-11-18T10:19:37;94275.09;;;6.95;100.00
65800;BME280;52544;48.116;11.660;2022-11-18T10:22:18;94269.28;;;6.91;100.00
65800;BME280;52544;48.116;11.660;2022-11-18T10:24:50;94264.84;;;6.92;100.00
65800;BME280;52544;48.116;11.660;2022-11-18T10:27:17;94263.19;;;6.91;100.00
65800;BME280;52544;48.116;11.660;2022-11-18T10:29:45;94271.50;;;6.86;100.00
65800;BME280;52544;48.116;11.660;2022-11-18T10:32:14;94261.56;;;6.90;100.00
65800;BME280;52544;48.116;11.660;2022-11-18T10:34:51;94266.25;;;6.86;100.00
65800;BME280;52544;48.116;11.660;2022-11-18T10:37:31;94269.44;;;6.90;100.00
65800;BME280;52544;48.116;11.660;2022-11-18T10:39:59;94264.84;;;6.92;100.00
65800;BME280;52544;48.116;11.660;2022-11-18T10:42:34;94267.63;;;6.90;100.00
65800;BME280;52544;48.116;11.660;2022-11-18T10:45:23;94266.69;;;6.82;100.00
65800;BME280;52544;48.116;11.660;2022-11-18T10:48:15;94268.31;;;6.92;100.00
65800;BME280;52544;48.116;11.660;2022-11-18T10:50:49;94256.84;;;6.84;100.00
65800;BME280;52544;48.116;11.660;2022-11-18T10:53:35;94256.56;;;6.87;100.00
65800;BME280;52544;48.116;11.660;2022-11-18T10:56:10;94260.19;;;6.76;100.00
65800;BME280;52544;48.116;11.660;2022-11-18T10:58:43;94257.69;;;6.74;100.00
65800;BME280;52544;48.116;11.660;2022-11-18T11:01:23;94260.19;;;6.76;100.00
65800;BME280;52544;48.116;11.660;2022-11-18T11:03:58;94256.03;;;6.73;100.00
65800;BME280;52544;48.116;11.660;2022-11-18T11:06:30;94274.44;;;6.73;100.00
65800;BME280;52544;48.116;11.660;2022-11-18T11:09:24;94276.25;;;6.73;100.00
65800;BME280;52544;48.116;11.660;2022-11-18T11:14:25;94270.97;;;6.73;100.00
65800;BME280;52544;48.116;11.660;2022-11-18T11:16:56;94271.00;;;6.63;100.00
65800;BME280;52544;48.116;11.660;2022-11-18T11:19:28;94258.13;;;6.60;100.00
65800;BME280;52544;48.116;11.660;2022-11-18T11:21:56;94256.31;;;6.70;100.00
65800;BME280;52544;48.116;11.660;2022-11-18T11:24:23;94256.44;;;6.69;100.00
65800;BME280;52544;48.116;11.660;2022-11-18T11:26:56;94256.03;;;6.73;100.00
65800;BME280;52544;48.116;11.660;2022-11-18T11:32:51;94259.47;;;6.93;100.00
65800;BME280;52544;48.116;11.660;2022-11-18T11:35:29;94269.56;;;6.98;100.00
65800;BME280;52544;48.116;11.660;2022-11-18T11:38:00;94263.31;;;6.99;100.00
65800;BME280;52544;48.116;11.660;2022-11-18T11:46:31;94266.34;;;7.04;100.00
65800;BME280;52544;48.116;11.660;2022-11-18T11:49:17;94269.56;;;6.98;100.00
65800;BME280;52544;48.116;11.660;2022-11-18T11:54:22;94274.69;;;6.99;100.00
65800;BME280;52544;48.116;11.660;2022-11-18T12:01:57;94276.47;;;6.99;100.00
65800;BME280;52544;48.116;11.660;2022-11-18T12:07:37;94285.75;;;7.03;100.00
65800;BME280;52544;48.116;11.660;2022-11-18T12:20:51;94276.22;;;7.02;100.00
65800;BME280;52544;48.116;11.660;2022-11-18T12:23:21;94291.59;;;6.97;100.00
65800;BME280;52544;48.116;11.660;2022-11-18T12:30:48;94295.28;;;7.04;100.00
65800;BME280;52544;48.116;11.660;2022-11-18T12:33:16;94290.59;;;7.08;100.00
65800;BME280;52544;48.116;11.660;2022-11-18T12:35:49;94296.13;;;7.05;100.00
65800;BME280;52544;48.116;11.660;2022-11-18T12:38:31;94304.16;;;7.03;100.00
65800;BME280;52544;48.116;11.660;2022-11-18T12:40:56;94300.84;;;7.01;100.00
65800;BME280;52544;48.116;11.660;2022-11-18T12:46:34;94303.91;;;6.87;100.00
65800;BME280;52544;48.116;11.660;2022-11-18T12:48:55;94307.22;;;6.89;100.00
65800;BME280;52544;48.116;11.660;2022-11-18T12:53:52;94322.19;;;6.88;100.00
65800;BME280;52544;48.116;11.660;2022-11-18T12:58:45;94323.00;;;6.79;100.00
65800;BME280;52544;48.116;11.660;2022-11-18T13:01:12;94330.75;;;6.81;100.00
65800;BME280;52544;48.116;11.660;2022-11-18T13:03:38;94326.03;;;6.74;100.00
65800;BME280;52544;48.116;11.660;2022-11-18T13:06:10;94337.69;;;6.82;100.00
65800;BME280;52544;48.116;11.660;2022-11-18T13:08:39;94343.75;;;6.72;100.00
65800;BME280;52544;48.116;11.660;2022-11-18T13:11:16;94336.84;;;6.71;100.00
65800;BME280;52544;48.116;11.660;2022-11-18T13:14:19;94339.59;;;6.70;100.00
65800;BME280;52544;48.116;11.660;2022-11-18T13:17:47;94345.56;;;6.72;100.00
65800;BME280;52544;48.116;11.660;2022-11-18T13:20:33;94348.63;;;6.67;100.00
65800;BME280;52544;48.116;11.660;2022-11-18T13:23:22;94342.91;;;6.62;100.00
65800;BME280;52544;48.116;11.660;2022-11-18T13:26:23;94354.53;;;6.50;100.00
65800;BME280;52544;48.116;11.660;2022-11-18T13:34:51;94363.09;;;6.42;100.00
65800;BME280;52544;48.116;11.660;2022-11-18T13:37:20;94363.94;;;6.43;100.00
65800;BME280;52544;48.116;11.660;2022-11-18T13:39:47;94349.56;;;6.47;100.00
65800;BME280;52544;48.116;11.660;2022-11-18T13:42:19;94351.63;;;6.43;100.00
65800;BME280;52544;48.116;11.660;2022-11-18T13:45:01;94353.41;;;6.43;100.00
65800;BME280;52544;48.116;11.660;2022-11-18T13:55:33;94364.75;;;6.34;100.00
65800;BME280;52544;48.116;11.660;2022-11-18T13:58:26;94353.66;;;6.30;100.00
65800;BME280;52544;48.116;11.660;2022-11-18T14:01:02;94361.41;;;6.32;100.00
65800;BME280;52544;48.116;11.660;2022-11-18T14:03:32;94365.31;;;6.37;100.00
65800;BME280;52544;48.116;11.660;2022-11-18T14:05:59;94358.41;;;6.46;100.00
65800;BME280;52544;48.116;11.660;2022-11-18T14:08:34;94355.91;;;6.44;100.00
65800;BME280;52544;48.116;11.660;2022-11-18T14:11:01;94359.09;;;6.48;100.00
65800;BME280;52544;48.116;11.660;2022-11-18T14:13:30;94364.59;;;6.45;100.00
65800;BME280;52544;48.116;11.660;2022-11-18T14:15:58;94356.59;;;6.46;100.00
65800;BME280;52544;48.116;11.660;2022-11-18T14:18:29;94367.38;;;6.53;100.00
65800;BME280;52544;48.116;11.660;2022-11-18T14:20:55;94366.72;;;6.51;100.00
65800;BME280;52544;48.116;11.660;2022-11-18T14:23:26;94367.94;;;6.47;100.00
65800;BME280;52544;48.116;11.660;2022-11-18T14:25:53;94372.94;;;6.50;100.00
65800;BME280;52544;48.116;11.660;2022-11-18T14:28:25;94366.00;;;6.49;100.00
65800;BME280;52544;48.116;11.660;2022-11-18T14:31:02;94371.56;;;6.56;100.00
65800;BME280;52544;48.116;11.660;2022-11-18T14:33:32;94376.66;;;6.47;100.00
65800;BME280;52544;48.116;11.660;2022-11-18T14:36:00;94376.25;;;6.52;100.00
65800;BME280;52544;48.116;11.660;2022-11-18T14:38:45;94374.84;;;6.48;100.00
65800;BME280;52544;48.116;11.660;2022-11-18T14:41:12;94380.94;;;6.48;100.00